createdAt,value
2023-03-21T00:02:08.010Z,9.40
2023-03-21T00:04:50.663Z,9.40
2023-03-21T00:07:19.445Z,9.40
2023-03-21T00:09:47.482Z,9.40
2023-03-21T00:12:16.721Z,9.40
2023-03-21T00:14:44.986Z,9.40
2023-03-21T00:17:15.954Z,9.40
2023-03-21T00:19:44.900Z,9.40
2023-03-21T00:22:12.823Z,9.40
2023-03-21T00:24:41.100Z,9.40
2023-03-21T00:27:42.588Z,9.40
2023-03-21T00:29:56.988Z,9.30
2023-03-21T00:32:26.643Z,9.30
2023-03-21T00:35:03.921Z,9.20
2023-03-21T00:37:42.067Z,9.30
2023-03-21T00:40:25.319Z,9.30
2023-03-21T00:42:54.458Z,9.40
2023-03-21T00:45:23.052Z,9.30
2023-03-21T00:47:52.526Z,9.30
2023-03-21T00:50:20.641Z,9.20
2023-03-21T00:52:50.359Z,9.20
2023-03-21T00:55:21.044Z,9.30
2023-03-21T00:57:56.101Z,9.20
2023-03-21T01:00:27.881Z,9.20
2023-03-21T01:03:11.207Z,9.10
2023-03-21T01:06:04.185Z,9.20
2023-03-21T01:08:48.613Z,9.20
2023-03-21T01:11:23.205Z,9.20
2023-03-21T01:14:04.255Z,9.20
2023-03-21T01:16:39.344Z,9.20
2023-03-21T01:19:23.970Z,9.30
2023-03-21T01:21:53.282Z,9.20
2023-03-21T01:24:21.230Z,9.20
2023-03-21T01:26:49.309Z,9.20
2023-03-21T01:29:17.291Z,9.20
2023-03-21T01:31:45.503Z,9.10
2023-03-21T01:34:14.896Z,9.00
2023-03-21T01:36:45.051Z,9.00
2023-03-21T01:39:18.238Z,9.00
2023-03-21T01:41:48.953Z,9.00
2023-03-21T01:44:22.998Z,8.90
2023-03-21T01:47:12.178Z,8.90
2023-03-21T01:50:07.300Z,8.90
2023-03-21T01:52:52.808Z,8.90
2023-03-21T01:55:28.702Z,8.90
2023-03-21T01:58:12.757Z,8.80
2023-03-21T02:01:04.756Z,8.90
2023-03-21T02:03:50.507Z,8.90
2023-03-21T02:06:36.855Z,8.80
2023-03-21T02:09:27.299Z,8.80
2023-03-21T02:11:56.424Z,8.80
2023-03-21T02:14:32.477Z,8.80
2023-03-21T02:17:32.084Z,8.80
2023-03-21T02:20:51.065Z,8.70
2023-03-21T02:23:57.816Z,8.70
2023-03-21T02:27:03.854Z,8.80
2023-03-21T02:30:49.090Z,8.70
2023-03-21T02:33:53.399Z,8.80
2023-03-21T02:36:34.932Z,8.70
2023-03-21T02:39:14.935Z,8.70
2023-03-21T02:41:52.183Z,8.60
2023-03-21T02:44:43.307Z,8.60
2023-03-21T02:47:19.607Z,8.60
2023-03-21T02:49:53.719Z,8.70
2023-03-21T02:52:37.741Z,8.70
2023-03-21T02:55:15.389Z,8.70
2023-03-21T02:57:56.797Z,8.70
2023-03-21T03:00:30.505Z,8.70
2023-03-21T03:03:09.233Z,8.70
2023-03-21T03:05:48.911Z,8.70
2023-03-21T03:08:41.354Z,8.70
2023-03-21T03:11:28.739Z,8.70
2023-03-21T03:17:29.050Z,8.70
2023-03-21T03:20:21.106Z,8.70
2023-03-21T03:22:59.321Z,8.70
2023-03-21T03:25:42.570Z,8.70
2023-03-21T03:28:19.014Z,8.60
2023-03-21T03:31:05.485Z,8.60
2023-03-21T03:33:46.756Z,8.50
2023-03-21T03:36:31.085Z,8.60
2023-03-21T03:39:05.560Z,8.70
2023-03-21T03:42:04.290Z,8.60
2023-03-21T03:44:36.353Z,8.50
2023-03-21T03:47:17.474Z,8.50
2023-03-21T03:50:02.082Z,8.50
2023-03-21T03:52:50.068Z,8.50
2023-03-21T03:55:27.140Z,8.50
2023-03-21T03:57:58.552Z,8.50
2023-03-21T04:00:28.423Z,8.50
2023-03-21T04:02:59.130Z,8.50
2023-03-21T04:05:28.032Z,8.60
2023-03-21T04:07:57.031Z,8.60
2023-03-21T04:10:35.473Z,8.60
2023-03-21T04:13:03.758Z,8.60
2023-03-21T04:15:56.138Z,8.60
2023-03-21T04:18:24.550Z,8.60
2023-03-21T04:20:52.565Z,8.60
2023-03-21T04:23:20.895Z,8.60
2023-03-21T04:25:56.859Z,8.70
2023-03-21T04:28:36.303Z,8.60
2023-03-21T04:31:27.208Z,8.60
2023-03-21T04:34:09.902Z,8.60
2023-03-21T04:36:42.946Z,8.60
2023-03-21T04:39:13.099Z,8.50
2023-03-21T04:41:44.072Z,8.40
2023-03-21T04:44:13.617Z,8.40
2023-03-21T04:46:43.797Z,8.40
2023-03-21T04:49:13.128Z,8.30
2023-03-21T04:51:41.154Z,8.30
2023-03-21T04:56:42.838Z,8.20
2023-03-21T04:59:15.468Z,8.20
2023-03-21T05:01:45.062Z,8.20
2023-03-21T05:04:15.742Z,8.20
2023-03-21T05:06:45.155Z,8.20
2023-03-21T05:09:14.038Z,8.30
2023-03-21T05:11:43.187Z,8.20
2023-03-21T05:14:18.470Z,8.20
2023-03-21T05:16:53.303Z,8.10
2023-03-21T05:19:25.822Z,8.10
2023-03-21T05:21:54.098Z,8.10
2023-03-21T05:24:26.457Z,8.10
2023-03-21T05:26:56.250Z,8.20
2023-03-21T05:29:27.658Z,8.10
2023-03-21T05:32:03.715Z,8.10
2023-03-21T05:34:32.396Z,8.10
2023-03-21T05:37:01.416Z,8.10
2023-03-21T05:39:43.699Z,8.20
2023-03-21T05:42:18.580Z,8.20
2023-03-21T05:44:48.286Z,8.10
2023-03-21T05:47:20.174Z,8.10
2023-03-21T05:49:49.792Z,8.10
2023-03-21T05:52:18.197Z,8.10
2023-03-21T05:54:47.188Z,8.20
2023-03-21T05:57:16.085Z,8.10
2023-03-21T05:59:53.586Z,8.20
2023-03-21T06:02:23.588Z,8.20
2023-03-21T06:04:52.290Z,8.30
2023-03-21T06:07:22.751Z,8.30
2023-03-21T06:09:51.462Z,8.30
2023-03-21T06:12:19.857Z,8.40
2023-03-21T06:15:12.976Z,8.40
2023-03-21T06:17:54.262Z,8.40
2023-03-21T06:20:22.293Z,8.30
2023-03-21T06:22:54.766Z,8.40
2023-03-21T06:25:23.279Z,8.30
2023-03-21T06:27:51.303Z,8.30
2023-03-21T06:30:21.101Z,8.30
2023-03-21T06:33:07.013Z,8.40
2023-03-21T06:35:35.142Z,8.40
2023-03-21T06:38:03.571Z,8.40
2023-03-21T06:40:34.113Z,8.40
2023-03-21T06:43:02.837Z,8.40
2023-03-21T06:45:31.526Z,8.40
2023-03-21T06:47:59.533Z,8.30
2023-03-21T06:50:41.792Z,8.40
2023-03-21T06:53:09.737Z,8.40
2023-03-21T06:55:58.218Z,8.40
2023-03-21T06:58:27.062Z,8.50
2023-03-21T07:00:55.173Z,8.50
2023-03-21T07:03:23.524Z,8.60
2023-03-21T07:05:53.743Z,8.70
2023-03-21T07:08:23.898Z,8.70
2023-03-21T07:10:56.479Z,8.80
2023-03-21T07:13:25.038Z,8.80
2023-03-21T07:15:56.507Z,8.80
2023-03-21T07:18:26.546Z,8.90
2023-03-21T07:20:55.816Z,8.90
2023-03-21T07:23:27.048Z,9.00
2023-03-21T07:25:56.632Z,9.10
2023-03-21T07:28:25.588Z,9.20
2023-03-21T07:30:56.835Z,9.20
2023-03-21T07:33:26.179Z,9.20
2023-03-21T07:36:00.075Z,9.30
2023-03-21T07:38:30.959Z,9.40
2023-03-21T07:41:01.352Z,9.30
2023-03-21T07:43:32.748Z,9.30
2023-03-21T07:46:01.206Z,9.30
2023-03-21T07:48:30.511Z,9.40
2023-03-21T07:51:00.087Z,9.40
2023-03-21T07:53:29.042Z,9.40
2023-03-21T07:55:57.462Z,9.40
2023-03-21T07:58:26.674Z,9.40
2023-03-21T08:00:56.498Z,9.50
2023-03-21T08:03:26.327Z,9.50
2023-03-21T08:05:54.392Z,9.60
2023-03-21T08:08:23.709Z,9.60
2023-03-21T08:10:51.650Z,9.60
2023-03-21T08:13:19.617Z,9.60
2023-03-21T08:15:47.613Z,9.70
2023-03-21T08:18:15.574Z,9.70
2023-03-21T08:20:43.606Z,9.70
2023-03-21T08:23:11.549Z,9.80
2023-03-21T08:25:40.991Z,9.90
2023-03-21T08:28:08.961Z,9.90
2023-03-21T08:30:38.857Z,9.80
2023-03-21T08:33:07.520Z,9.90
2023-03-21T08:35:35.705Z,9.90
2023-03-21T08:38:04.765Z,10.10
2023-03-21T08:40:32.781Z,10.10
2023-03-21T08:43:02.085Z,10.10
2023-03-21T08:45:30.785Z,10.20
2023-03-21T08:47:58.849Z,10.30
2023-03-21T08:50:29.560Z,10.30
2023-03-21T08:52:57.599Z,10.40
2023-03-21T08:55:25.755Z,10.40
2023-03-21T08:57:53.743Z,10.40
2023-03-21T09:00:23.817Z,10.40
2023-03-21T09:02:54.219Z,10.30
2023-03-21T09:05:25.792Z,10.40
2023-03-21T09:07:54.257Z,10.50
2023-03-21T09:10:24.291Z,10.60
2023-03-21T09:12:55.472Z,10.60
2023-03-21T09:15:28.940Z,10.60
2023-03-21T09:17:58.642Z,10.60
2023-03-21T09:20:33.023Z,10.70
2023-03-21T09:23:01.727Z,10.70
2023-03-21T09:25:31.138Z,10.70
2023-03-21T09:28:00.497Z,10.80
2023-03-21T09:30:31.404Z,10.90
2023-03-21T09:33:01.332Z,11.00
2023-03-21T09:35:30.658Z,11.10
2023-03-21T09:38:00.536Z,11.00
2023-03-21T09:40:52.661Z,11.20
2023-03-21T09:43:39.732Z,11.20
2023-03-21T09:46:18.566Z,11.20
2023-03-21T09:48:57.836Z,11.20
2023-03-21T09:51:32.681Z,11.30
2023-03-21T09:54:08.729Z,11.40
2023-03-21T09:56:42.368Z,11.50
2023-03-21T09:59:22.898Z,11.50
2023-03-21T10:01:52.996Z,11.70
2023-03-21T10:04:22.325Z,11.80
2023-03-21T10:06:59.138Z,11.80
2023-03-21T10:09:32.528Z,11.80
2023-03-21T10:12:08.249Z,11.90
2023-03-21T10:14:41.262Z,12.00
2023-03-21T10:17:29.653Z,12.20
2023-03-21T10:20:13.233Z,12.30
2023-03-21T10:22:41.915Z,12.50
2023-03-21T10:25:17.249Z,12.40
2023-03-21T10:27:47.053Z,12.40
2023-03-21T10:30:29.233Z,12.60
2023-03-21T10:33:05.593Z,12.70
2023-03-21T10:35:37.326Z,12.80
2023-03-21T10:38:08.096Z,12.90
2023-03-21T10:40:35.979Z,13.00
2023-03-21T10:43:21.741Z,13.20
2023-03-21T10:45:50.267Z,13.20
2023-03-21T10:48:19.856Z,13.20
2023-03-21T10:50:51.488Z,13.20
2023-03-21T10:53:23.446Z,13.40
2023-03-21T10:55:56.968Z,13.40
2023-03-21T10:58:30.438Z,13.40
2023-03-21T11:01:02.506Z,13.40
2023-03-21T11:03:37.124Z,13.50
2023-03-21T11:06:12.705Z,13.70
2023-03-21T11:08:44.854Z,13.90
2023-03-21T11:11:22.495Z,14.40
2023-03-21T11:13:59.636Z,14.70
2023-03-21T11:16:37.243Z,14.70
2023-03-21T11:19:16.091Z,14.70
2023-03-21T11:21:45.711Z,14.80
2023-03-21T11:24:18.217Z,14.80
2023-03-21T11:26:50.729Z,14.80
2023-03-21T11:29:31.178Z,14.90
2023-03-21T11:32:02.552Z,15.20
2023-03-21T11:34:48.575Z,15.10
2023-03-21T11:37:26.160Z,15.20
2023-03-21T11:40:09.351Z,15.40
2023-03-21T11:42:44.885Z,15.50
2023-03-21T11:45:17.356Z,15.60
2023-03-21T11:47:46.189Z,15.80
2023-03-21T11:50:33.872Z,15.80
2023-03-21T11:53:26.610Z,15.60
2023-03-21T11:56:19.721Z,15.50
2023-03-21T11:59:05.623Z,15.40
2023-03-21T12:01:46.756Z,15.40
2023-03-21T12:04:29.011Z,15.50
2023-03-21T12:07:06.800Z,15.50
2023-03-21T12:09:42.605Z,15.50
2023-03-21T12:12:39.208Z,15.60
2023-03-21T12:15:20.765Z,15.80
2023-03-21T12:18:04.436Z,15.90
2023-03-21T12:20:42.883Z,15.80
2023-03-21T12:23:40.665Z,15.70
2023-03-21T12:26:23.283Z,15.90
2023-03-21T12:29:30.066Z,16.50
2023-03-21T12:32:16.505Z,16.80
2023-03-21T12:35:09.229Z,16.90
2023-03-21T12:37:53.850Z,16.90
2023-03-21T12:40:45.397Z,16.80
2023-03-21T12:43:45.272Z,16.90
2023-03-21T12:46:22.277Z,17.10
2023-03-21T12:48:55.063Z,17.20
2023-03-21T12:51:32.339Z,17.10
2023-03-21T12:54:15.845Z,17.00
2023-03-21T12:56:53.849Z,17.20
2023-03-21T12:59:33.262Z,17.40
2023-03-21T13:02:15.442Z,17.20
2023-03-21T13:04:53.141Z,17.10
2023-03-21T13:07:25.147Z,17.20
2023-03-21T13:09:55.230Z,17.40
2023-03-21T13:12:49.185Z,17.30
2023-03-21T13:15:36.507Z,17.30
2023-03-21T13:18:18.161Z,17.60
2023-03-21T13:20:51.589Z,17.90
2023-03-21T13:23:20.412Z,17.70
2023-03-21T13:25:51.293Z,17.60
2023-03-21T13:28:26.546Z,17.40
2023-03-21T13:31:15.338Z,17.40
2023-03-21T13:33:46.721Z,17.30
2023-03-21T13:36:19.541Z,17.20
2023-03-21T13:38:53.061Z,17.20
2023-03-21T13:41:30.803Z,17.30
2023-03-21T13:44:17.238Z,17.30
2023-03-21T13:46:55.064Z,17.40
2023-03-21T13:49:34.490Z,17.10
2023-03-21T13:52:22.302Z,17.00
2023-03-21T13:54:57.617Z,16.90
2023-03-21T13:57:40.696Z,16.70
2023-03-21T14:00:29.417Z,16.80
2023-03-21T14:03:02.934Z,16.80
2023-03-21T14:05:31.771Z,16.80
2023-03-21T14:08:15.456Z,16.70
2023-03-21T14:10:53.371Z,16.70
2023-03-21T14:13:26.556Z,16.80
2023-03-21T14:16:06.756Z,16.90
2023-03-21T14:18:54.086Z,16.70
2023-03-21T14:21:26.589Z,16.40
2023-03-21T14:24:00.508Z,16.30
2023-03-21T14:26:33.647Z,16.40
2023-03-21T14:29:07.366Z,16.60
2023-03-21T14:31:42.574Z,16.50
2023-03-21T14:34:12.576Z,16.60
2023-03-21T14:36:45.774Z,16.50
2023-03-21T14:39:23.277Z,16.50
2023-03-21T14:41:54.161Z,16.30
2023-03-21T14:44:28.430Z,16.20
2023-03-21T14:47:06.226Z,16.20
2023-03-21T14:49:36.280Z,16.20
2023-03-21T14:52:08.115Z,16.20
2023-03-21T14:54:38.153Z,16.20
2023-03-21T14:57:11.572Z,16.10
2023-03-21T14:59:42.017Z,16.10
2023-03-21T15:02:19.169Z,16.00
2023-03-21T15:04:51.164Z,15.90
2023-03-21T15:07:29.349Z,15.90
2023-03-21T15:10:03.429Z,16.00
2023-03-21T15:12:31.988Z,16.00
2023-03-21T15:15:01.667Z,16.00
2023-03-21T15:17:31.686Z,15.90
2023-03-21T15:19:59.929Z,15.80
2023-03-21T15:22:35.470Z,15.80
2023-03-21T15:25:08.176Z,15.80
2023-03-21T15:27:42.189Z,15.70
2023-03-21T15:30:23.124Z,15.60
2023-03-21T15:32:52.834Z,15.70
2023-03-21T15:35:27.800Z,15.70
2023-03-21T15:37:58.678Z,15.70
2023-03-21T15:40:29.785Z,15.80
2023-03-21T15:43:14.881Z,15.60
2023-03-21T15:45:49.220Z,15.70
2023-03-21T15:48:23.158Z,15.60
2023-03-21T15:51:01.343Z,15.50
2023-03-21T15:53:33.741Z,15.50
2023-03-21T15:56:05.943Z,15.40
2023-03-21T15:58:39.326Z,15.40
2023-03-21T16:01:13.554Z,15.40
2023-03-21T16:03:49.645Z,15.40
2023-03-21T16:06:22.698Z,15.40
2023-03-21T16:08:53.361Z,15.40
2023-03-21T16:11:28.228Z,15.20
2023-03-21T16:14:01.061Z,15.20
2023-03-21T16:16:31.569Z,15.10
2023-03-21T16:19:02.663Z,15.00
2023-03-21T16:21:34.149Z,14.90
2023-03-21T16:24:02.634Z,14.80
2023-03-21T16:26:33.712Z,14.80
2023-03-21T16:29:01.657Z,14.70
2023-03-21T16:31:32.844Z,14.70
2023-03-21T16:34:03.878Z,14.70
2023-03-21T16:36:36.522Z,14.70
2023-03-21T16:39:18.053Z,14.60
2023-03-21T16:41:50.470Z,14.60
2023-03-21T16:44:21.099Z,14.50
2023-03-21T16:46:49.515Z,14.50
2023-03-21T16:49:26.746Z,14.50
2023-03-21T16:51:57.001Z,14.50
2023-03-21T16:54:25.719Z,14.40
2023-03-21T16:56:57.294Z,14.30
2023-03-21T16:59:25.358Z,14.30
2023-03-21T17:01:53.305Z,14.20
2023-03-21T17:04:24.309Z,14.20
2023-03-21T17:06:54.693Z,14.10
2023-03-21T17:09:26.255Z,14.10
2023-03-21T17:11:54.329Z,14.00
2023-03-21T17:14:23.039Z,14.00
2023-03-21T17:16:51.028Z,14.00
2023-03-21T17:19:23.902Z,13.90
2023-03-21T17:21:51.853Z,13.90
2023-03-21T17:24:19.919Z,13.90
2023-03-21T17:26:47.825Z,13.90
2023-03-21T17:29:16.783Z,13.90
2023-03-21T17:31:47.422Z,13.90
2023-03-21T17:34:15.647Z,13.80
2023-03-21T17:36:48.777Z,13.80
2023-03-21T17:39:21.431Z,13.80
2023-03-21T17:41:49.993Z,13.80
2023-03-21T17:44:17.898Z,13.80
2023-03-21T17:46:46.467Z,13.80
2023-03-21T17:49:16.555Z,13.70
2023-03-21T17:51:46.895Z,13.70
2023-03-21T17:54:15.041Z,13.60
2023-03-21T17:56:42.957Z,13.60
2023-03-21T17:59:14.577Z,13.60
2023-03-21T18:01:42.871Z,13.50
2023-03-21T18:04:11.078Z,13.50
2023-03-21T18:06:39.108Z,13.50
2023-03-21T18:09:11.766Z,13.50
2023-03-21T18:11:41.476Z,13.50
2023-03-21T18:14:19.507Z,13.50
2023-03-21T18:16:54.138Z,13.50
2023-03-21T18:19:22.067Z,13.50
2023-03-21T18:21:50.375Z,13.50
2023-03-21T18:24:19.632Z,13.50
2023-03-21T18:26:47.797Z,13.40
2023-03-21T18:32:08.421Z,13.40
2023-03-21T18:34:39.387Z,13.40
2023-03-21T18:37:08.400Z,13.40
2023-03-21T18:39:42.318Z,13.40
2023-03-21T18:42:16.796Z,13.40
2023-03-21T18:44:48.032Z,13.40
2023-03-21T18:47:19.665Z,13.30
2023-03-21T18:52:40.897Z,13.10
2023-03-21T18:55:11.844Z,13.10
2023-03-21T18:57:43.437Z,13.20
2023-03-21T19:00:17.498Z,13.10
2023-03-21T19:02:50.836Z,13.10
2023-03-21T19:05:22.718Z,13.00
2023-03-21T19:07:52.878Z,13.00
2023-03-21T19:10:24.514Z,12.90
2023-03-21T19:12:54.685Z,12.90
2023-03-21T19:15:24.460Z,12.80
2023-03-21T19:20:47.501Z,12.70
2023-03-21T19:23:17.277Z,12.70
2023-03-21T19:25:46.964Z,12.60
2023-03-21T19:28:14.907Z,12.50
2023-03-21T19:30:49.904Z,12.60
2023-03-21T19:33:19.854Z,12.50
2023-03-21T19:35:50.290Z,12.50
2023-03-21T19:38:18.264Z,12.50
2023-03-21T19:40:50.628Z,12.40
2023-03-21T19:43:32.320Z,12.30
2023-03-21T19:46:01.669Z,12.30
2023-03-21T19:48:30.678Z,12.30
2023-03-21T19:51:26.729Z,12.20
2023-03-21T19:53:51.087Z,12.10
2023-03-21T19:56:24.441Z,12.10
2023-03-21T19:58:54.639Z,12.00
2023-03-21T20:01:24.009Z,12.00
2023-03-21T20:03:52.586Z,11.90
2023-03-21T20:06:22.191Z,11.80
2023-03-21T20:09:30.818Z,11.70
2023-03-21T20:11:40.489Z,11.60
2023-03-21T20:14:08.470Z,11.70
2023-03-21T20:16:42.989Z,11.60
2023-03-21T20:19:16.000Z,11.60
2023-03-21T20:21:52.860Z,11.50
2023-03-21T20:24:24.534Z,11.40
2023-03-21T20:26:54.929Z,11.40
2023-03-21T20:32:11.976Z,11.40
2023-03-21T20:34:40.331Z,11.40
2023-03-21T20:37:08.341Z,11.40
2023-03-21T20:39:36.537Z,11.30
2023-03-21T20:42:06.825Z,11.30
2023-03-21T20:44:55.966Z,11.30
2023-03-21T20:47:23.586Z,11.30
2023-03-21T20:49:51.486Z,11.40
2023-03-21T20:55:09.136Z,11.30
2023-03-21T20:57:39.083Z,11.30
2023-03-21T21:00:15.064Z,11.30
2023-03-21T21:02:45.745Z,11.20
2023-03-21T21:05:27.484Z,11.10
2023-03-21T21:07:56.449Z,11.20
2023-03-21T21:10:25.827Z,11.20
2023-03-21T21:12:55.558Z,11.20
2023-03-21T21:15:23.662Z,11.10
2023-03-21T21:18:08.561Z,11.20
2023-03-21T21:20:39.090Z,11.20
2023-03-21T21:23:09.719Z,11.10
2023-03-21T21:25:37.802Z,11.10
2023-03-21T21:28:09.334Z,11.00
2023-03-21T21:30:41.194Z,11.00
2023-03-21T21:33:09.477Z,11.00
2023-03-21T21:35:38.478Z,11.10
2023-03-21T21:38:08.968Z,11.00
2023-03-21T21:40:37.321Z,10.90
2023-03-21T21:43:06.731Z,10.90
2023-03-21T21:45:34.858Z,10.90
2023-03-21T21:48:02.975Z,10.90
2023-03-21T21:50:30.912Z,10.90
2023-03-21T21:53:03.534Z,11.00
2023-03-21T21:55:31.971Z,10.90
2023-03-21T21:58:00.495Z,10.90
2023-03-21T22:00:32.340Z,10.90
2023-03-21T22:03:02.342Z,10.90
2023-03-21T22:05:30.540Z,10.90
2023-03-21T22:07:58.634Z,10.90
2023-03-21T22:10:28.230Z,10.90
2023-03-21T22:12:56.218Z,10.90
2023-03-21T22:15:24.136Z,10.90
2023-03-21T22:17:53.494Z,10.90
2023-03-21T22:20:22.750Z,11.00
2023-03-21T22:22:51.347Z,11.00
2023-03-21T22:25:19.548Z,10.90
2023-03-21T22:27:47.433Z,10.90
2023-03-21T22:30:18.592Z,10.90
2023-03-21T22:33:02.618Z,10.90
2023-03-21T22:35:38.049Z,10.80
2023-03-21T22:38:11.567Z,10.80
2023-03-21T22:40:39.794Z,10.80
2023-03-21T22:43:08.700Z,10.80
2023-03-21T22:45:36.621Z,10.80
2023-03-21T22:48:06.229Z,10.70
2023-03-21T22:50:34.224Z,10.70
2023-03-21T22:53:03.692Z,10.70
2023-03-21T22:55:31.602Z,10.70
2023-03-21T22:57:59.483Z,10.70
2023-03-21T23:00:27.822Z,10.70
2023-03-21T23:02:57.103Z,10.60
2023-03-21T23:05:25.003Z,10.60
2023-03-21T23:07:53.364Z,10.60
2023-03-21T23:10:22.915Z,10.60
2023-03-21T23:12:51.709Z,10.60
2023-03-21T23:15:19.861Z,10.50
2023-03-21T23:17:47.984Z,10.60
2023-03-21T23:20:16.423Z,10.60
2023-03-21T23:22:44.374Z,10.60
2023-03-21T23:25:12.767Z,10.50
2023-03-21T23:27:42.032Z,10.60
2023-03-21T23:30:10.911Z,10.70
2023-03-21T23:32:38.919Z,10.70
2023-03-21T23:35:08.653Z,10.60
2023-03-21T23:37:36.668Z,10.60
2023-03-21T23:40:06.915Z,10.60
2023-03-21T23:42:35.805Z,10.50
2023-03-21T23:45:06.499Z,10.50
2023-03-21T23:47:34.562Z,10.50
2023-03-21T23:50:02.517Z,10.50
2023-03-21T23:52:30.428Z,10.40
2023-03-21T23:54:58.311Z,10.30
2023-03-21T23:57:27.063Z,10.30
2023-03-21T23:59:55.944Z,10.30
